sensor_id;sensor_type;location;lat;lon;timestamp;P1;durP1;ratioP1;P2;durP2;ratioP2
44746;SDS011;30472;49.490;10.972;2023-08-06T00:00:12;4.73;;;3.97;;
44746;SDS011;30472;49.490;10.972;2023-08-06T00:02:38;4.07;;;3.63;;
44746;SDS011;30472;49.490;10.972;2023-08-06T00:05:04;4.13;;;3.73;;
44746;SDS011;30472;49.490;10.972;2023-08-06T00:07:30;5.00;;;4.47;;
44746;SDS011;30472;49.490;10.972;2023-08-06T00:09:55;6.73;;;4.20;;
44746;SDS011;30472;49.490;10.972;2023-08-06T00:12:21;8.50;;;4.97;;
44746;SDS011;30472;49.490;10.972;2023-08-06T00:14:49;4.17;;;3.70;;
44746;SDS011;30472;49.490;10.972;2023-08-06T00:17:18;6.23;;;4.03;;
44746;SDS011;30472;49.490;10.972;2023-08-06T00:19:44;5.10;;;4.30;;
44746;SDS011;30472;49.490;10.972;2023-08-06T00:22:10;4.27;;;3.80;;
44746;SDS011;30472;49.490;10.972;2023-08-06T00:24:35;5.10;;;4.53;;
44746;SDS011;30472;49.490;10.972;2023-08-06T00:27:01;5.37;;;3.70;;
44746;SDS011;30472;49.490;10.972;2023-08-06T00:29:27;7.23;;;4.13;;
44746;SDS011;30472;49.490;10.972;2023-08-06T00:31:53;4.50;;;4.07;;
44746;SDS011;30472;49.490;10.972;2023-08-06T00:34:18;6.53;;;4.37;;
44746;SDS011;30472;49.490;10.972;2023-08-06T00:36:44;4.40;;;4.00;;
44746;SDS011;30472;49.490;10.972;2023-08-06T00:39:10;4.10;;;3.70;;
44746;SDS011;30472;49.490;10.972;2023-08-06T00:41:36;4.27;;;3.87;;
44746;SDS011;30472;49.490;10.972;2023-08-06T00:44:01;5.20;;;4.33;;
44746;SDS011;30472;49.490;10.972;2023-08-06T00:46:27;14.70;;;4.43;;
44746;SDS011;30472;49.490;10.972;2023-08-06T00:48:53;4.47;;;3.40;;
44746;SDS011;30472;49.490;10.972;2023-08-06T00:51:19;5.87;;;4.20;;
44746;SDS011;30472;49.490;10.972;2023-08-06T00:53:46;6.10;;;3.90;;
44746;SDS011;30472;49.490;10.972;2023-08-06T00:56:12;4.33;;;4.00;;
44746;SDS011;30472;49.490;10.972;2023-08-06T00:58:38;4.63;;;3.70;;
44746;SDS011;30472;49.490;10.972;2023-08-06T01:01:04;4.80;;;3.97;;
44746;SDS011;30472;49.490;10.972;2023-08-06T01:03:29;3.60;;;3.30;;
44746;SDS011;30472;49.490;10.972;2023-08-06T01:05:55;4.60;;;3.43;;
44746;SDS011;30472;49.490;10.972;2023-08-06T01:11:26;4.03;;;3.67;;
44746;SDS011;30472;49.490;10.972;2023-08-06T01:13:59;4.50;;;3.70;;
44746;SDS011;30472;49.490;10.972;2023-08-06T01:16:31;5.63;;;3.67;;
44746;SDS011;30472;49.490;10.972;2023-08-06T01:18:58;4.33;;;3.93;;
44746;SDS011;30472;49.490;10.972;2023-08-06T01:21:24;5.03;;;4.53;;
44746;SDS011;30472;49.490;10.972;2023-08-06T01:23:49;4.50;;;4.10;;
44746;SDS011;30472;49.490;10.972;2023-08-06T01:31:38;6.00;;;4.50;;
44746;SDS011;30472;49.490;10.972;2023-08-06T01:34:07;8.33;;;4.03;;
44746;SDS011;30472;49.490;10.972;2023-08-06T01:36:36;4.07;;;3.70;;
44746;SDS011;30472;49.490;10.972;2023-08-06T01:39:02;5.87;;;3.87;;
44746;SDS011;30472;49.490;10.972;2023-08-06T01:41:30;4.80;;;3.73;;
44746;SDS011;30472;49.490;10.972;2023-08-06T01:43:55;3.77;;;3.47;;
44746;SDS011;30472;49.490;10.972;2023-08-06T01:46:21;4.57;;;3.47;;
44746;SDS011;30472;49.490;10.972;2023-08-06T01:48:46;3.63;;;3.33;;
44746;SDS011;30472;49.490;10.972;2023-08-06T01:51:12;3.63;;;3.33;;
44746;SDS011;30472;49.490;10.972;2023-08-06T01:53:37;5.40;;;3.50;;
44746;SDS011;30472;49.490;10.972;2023-08-06T01:56:03;5.70;;;3.50;;
44746;SDS011;30472;49.490;10.972;2023-08-06T01:58:28;3.67;;;3.37;;
44746;SDS011;30472;49.490;10.972;2023-08-06T02:00:54;3.70;;;3.40;;
44746;SDS011;30472;49.490;10.972;2023-08-06T02:03:20;4.87;;;3.40;;
44746;SDS011;30472;49.490;10.972;2023-08-06T02:05:45;3.10;;;2.83;;
44746;SDS011;30472;49.490;10.972;2023-08-06T02:08:11;3.50;;;3.20;;
44746;SDS011;30472;49.490;10.972;2023-08-06T02:10:37;3.50;;;3.20;;
44746;SDS011;30472;49.490;10.972;2023-08-06T02:13:02;6.67;;;3.37;;
44746;SDS011;30472;49.490;10.972;2023-08-06T02:15:28;3.20;;;2.90;;
44746;SDS011;30472;49.490;10.972;2023-08-06T02:17:53;3.47;;;3.17;;
44746;SDS011;30472;49.490;10.972;2023-08-06T02:20:19;3.37;;;3.07;;
44746;SDS011;30472;49.490;10.972;2023-08-06T02:22:44;3.13;;;2.83;;
44746;SDS011;30472;49.490;10.972;2023-08-06T02:25:10;3.40;;;2.70;;
44746;SDS011;30472;49.490;10.972;2023-08-06T02:27:36;2.47;;;2.27;;
44746;SDS011;30472;49.490;10.972;2023-08-06T02:30:02;2.60;;;2.40;;
44746;SDS011;30472;49.490;10.972;2023-08-06T02:32:29;3.70;;;2.50;;
44746;SDS011;30472;49.490;10.972;2023-08-06T02:34:56;3.13;;;2.50;;
44746;SDS011;30472;49.490;10.972;2023-08-06T02:37:22;3.10;;;2.90;;
44746;SDS011;30472;49.490;10.972;2023-08-06T02:39:47;3.47;;;2.40;;
44746;SDS011;30472;49.490;10.972;2023-08-06T02:42:13;2.50;;;2.30;;
44746;SDS011;30472;49.490;10.972;2023-08-06T02:44:38;3.47;;;2.60;;
44746;SDS011;30472;49.490;10.972;2023-08-06T02:47:04;2.70;;;2.50;;
44746;SDS011;30472;49.490;10.972;2023-08-06T02:49:30;4.47;;;2.63;;
44746;SDS011;30472;49.490;10.972;2023-08-06T02:51:56;2.87;;;2.67;;
44746;SDS011;30472;49.490;10.972;2023-08-06T02:54:21;3.03;;;2.83;;
44746;SDS011;30472;49.490;10.972;2023-08-06T02:56:47;3.07;;;2.77;;
44746;SDS011;30472;49.490;10.972;2023-08-06T02:59:12;3.10;;;2.80;;
44746;SDS011;30472;49.490;10.972;2023-08-06T03:01:38;3.30;;;3.00;;
44746;SDS011;30472;49.490;10.972;2023-08-06T03:04:04;3.97;;;2.90;;
44746;SDS011;30472;49.490;10.972;2023-08-06T03:06:30;3.10;;;2.80;;
44746;SDS011;30472;49.490;10.972;2023-08-06T03:08:56;3.20;;;2.70;;
44746;SDS011;30472;49.490;10.972;2023-08-06T03:11:21;3.07;;;2.77;;
44746;SDS011;30472;49.490;10.972;2023-08-06T03:13:47;4.40;;;2.73;;
44746;SDS011;30472;49.490;10.972;2023-08-06T03:16:13;3.83;;;3.43;;
44746;SDS011;30472;49.490;10.972;2023-08-06T03:18:39;2.87;;;2.57;;
44746;SDS011;30472;49.490;10.972;2023-08-06T03:21:05;3.37;;;3.07;;
44746;SDS011;30472;49.490;10.972;2023-08-06T03:23:30;3.50;;;3.20;;
44746;SDS011;30472;49.490;10.972;2023-08-06T03:25:56;3.33;;;2.77;;
44746;SDS011;30472;49.490;10.972;2023-08-06T03:28:25;3.63;;;2.77;;
44746;SDS011;30472;49.490;10.972;2023-08-06T03:30:58;3.40;;;2.87;;
44746;SDS011;30472;49.490;10.972;2023-08-06T03:33:27;3.20;;;2.90;;
44746;SDS011;30472;49.490;10.972;2023-08-06T03:35:53;5.27;;;2.97;;
44746;SDS011;30472;49.490;10.972;2023-08-06T03:38:18;3.80;;;3.20;;
44746;SDS011;30472;49.490;10.972;2023-08-06T03:40:44;5.17;;;3.40;;
44746;SDS011;30472;49.490;10.972;2023-08-06T03:43:11;4.33;;;3.67;;
44746;SDS011;30472;49.490;10.972;2023-08-06T03:45:36;4.40;;;4.00;;
44746;SDS011;30472;49.490;10.972;2023-08-06T03:48:02;3.83;;;3.53;;
44746;SDS011;30472;49.490;10.972;2023-08-06T03:50:27;4.27;;;3.70;;
44746;SDS011;30472;49.490;10.972;2023-08-06T03:52:53;4.33;;;3.93;;
44746;SDS011;30472;49.490;10.972;2023-08-06T03:55:18;4.60;;;4.20;;
44746;SDS011;30472;49.490;10.972;2023-08-06T03:57:44;3.77;;;3.47;;
44746;SDS011;30472;49.490;10.972;2023-08-06T04:00:10;5.50;;;3.67;;
44746;SDS011;30472;49.490;10.972;2023-08-06T04:02:35;4.23;;;3.87;;
44746;SDS011;30472;49.490;10.972;2023-08-06T04:05:01;4.83;;;3.87;;
44746;SDS011;30472;49.490;10.972;2023-08-06T04:07:28;7.90;;;4.37;;
44746;SDS011;30472;49.490;10.972;2023-08-06T04:09:57;4.93;;;4.13;;
44746;SDS011;30472;49.490;10.972;2023-08-06T04:12:24;6.80;;;4.37;;
44746;SDS011;30472;49.490;10.972;2023-08-06T04:14:50;7.70;;;4.43;;
44746;SDS011;30472;49.490;10.972;2023-08-06T04:17:22;4.17;;;3.77;;
44746;SDS011;30472;49.490;10.972;2023-08-06T04:19:52;8.03;;;4.70;;
44746;SDS011;30472;49.490;10.972;2023-08-06T04:22:19;3.77;;;3.47;;
44746;SDS011;30472;49.490;10.972;2023-08-06T04:24:45;4.73;;;4.27;;
44746;SDS011;30472;49.490;10.972;2023-08-06T04:27:12;4.40;;;4.00;;
44746;SDS011;30472;49.490;10.972;2023-08-06T04:29:38;5.33;;;4.10;;
44746;SDS011;30472;49.490;10.972;2023-08-06T04:32:05;4.80;;;4.10;;
44746;SDS011;30472;49.490;10.972;2023-08-06T04:34:32;6.97;;;4.37;;
44746;SDS011;30472;49.490;10.972;2023-08-06T04:36:58;5.37;;;4.30;;
44746;SDS011;30472;49.490;10.972;2023-08-06T04:39:24;5.27;;;4.43;;
44746;SDS011;30472;49.490;10.972;2023-08-06T04:41:50;5.57;;;4.20;;
44746;SDS011;30472;49.490;10.972;2023-08-06T04:44:15;4.45;;;4.00;;
44746;SDS011;30472;49.490;10.972;2023-08-06T04:46:41;4.43;;;3.90;;
44746;SDS011;30472;49.490;10.972;2023-08-06T04:49:07;4.87;;;3.97;;
44746;SDS011;30472;49.490;10.972;2023-08-06T04:51:32;4.90;;;4.40;;
44746;SDS011;30472;49.490;10.972;2023-08-06T04:53:58;5.13;;;4.17;;
44746;SDS011;30472;49.490;10.972;2023-08-06T04:56:23;4.80;;;4.13;;
44746;SDS011;30472;49.490;10.972;2023-08-06T04:58:49;6.30;;;3.90;;
44746;SDS011;30472;49.490;10.972;2023-08-06T05:01:15;4.50;;;4.10;;
44746;SDS011;30472;49.490;10.972;2023-08-06T05:03:41;5.30;;;4.07;;
44746;SDS011;30472;49.490;10.972;2023-08-06T05:06:06;5.20;;;4.33;;
44746;SDS011;30472;49.490;10.972;2023-08-06T05:08:32;4.93;;;4.10;;
44746;SDS011;30472;49.490;10.972;2023-08-06T05:10:58;6.43;;;4.90;;
44746;SDS011;30472;49.490;10.972;2023-08-06T05:13:23;7.37;;;3.87;;
44746;SDS011;30472;49.490;10.972;2023-08-06T05:15:50;5.03;;;3.93;;
44746;SDS011;30472;49.490;10.972;2023-08-06T05:18:16;7.43;;;4.10;;
44746;SDS011;30472;49.490;10.972;2023-08-06T05:20:41;4.13;;;3.60;;
44746;SDS011;30472;49.490;10.972;2023-08-06T05:23:08;4.83;;;3.70;;
44746;SDS011;30472;49.490;10.972;2023-08-06T05:25:37;3.87;;;3.47;;
44746;SDS011;30472;49.490;10.972;2023-08-06T05:28:03;3.87;;;3.57;;
44746;SDS011;30472;49.490;10.972;2023-08-06T05:30:29;4.67;;;3.27;;
44746;SDS011;30472;49.490;10.972;2023-08-06T05:32:56;4.20;;;3.30;;
44746;SDS011;30472;49.490;10.972;2023-08-06T05:35:22;3.67;;;3.37;;
44746;SDS011;30472;49.490;10.972;2023-08-06T05:37:48;5.27;;;4.00;;
44746;SDS011;30472;49.490;10.972;2023-08-06T05:40:14;4.43;;;3.37;;
44746;SDS011;30472;49.490;10.972;2023-08-06T05:42:40;4.20;;;3.50;;
44746;SDS011;30472;49.490;10.972;2023-08-06T05:45:06;3.77;;;2.93;;
44746;SDS011;30472;49.490;10.972;2023-08-06T05:47:32;3.60;;;2.83;;
44746;SDS011;30472;49.490;10.972;2023-08-06T05:49:58;4.80;;;3.07;;
44746;SDS011;30472;49.490;10.972;2023-08-06T05:52:23;2.90;;;2.70;;
44746;SDS011;30472;49.490;10.972;2023-08-06T05:54:49;5.10;;;3.17;;
44746;SDS011;30472;49.490;10.972;2023-08-06T05:57:15;4.23;;;2.77;;
44746;SDS011;30472;49.490;10.972;2023-08-06T05:59:42;4.20;;;2.93;;
44746;SDS011;30472;49.490;10.972;2023-08-06T06:02:07;3.37;;;2.90;;
44746;SDS011;30472;49.490;10.972;2023-08-06T06:04:33;4.90;;;2.53;;
44746;SDS011;30472;49.490;10.972;2023-08-06T06:06:59;2.57;;;2.30;;
44746;SDS011;30472;49.490;10.972;2023-08-06T06:09:25;2.53;;;2.33;;
44746;SDS011;30472;49.490;10.972;2023-08-06T06:11:50;3.43;;;2.70;;
44746;SDS011;30472;49.490;10.972;2023-08-06T06:14:17;3.10;;;2.40;;
44746;SDS011;30472;49.490;10.972;2023-08-06T06:16:43;3.40;;;2.40;;
44746;SDS011;30472;49.490;10.972;2023-08-06T06:19:08;2.93;;;2.73;;
44746;SDS011;30472;49.490;10.972;2023-08-06T06:21:34;5.43;;;2.83;;
44746;SDS011;30472;49.490;10.972;2023-08-06T06:23:59;4.33;;;2.60;;
44746;SDS011;30472;49.490;10.972;2023-08-06T06:26:25;3.23;;;2.93;;
44746;SDS011;30472;49.490;10.972;2023-08-06T06:28:51;3.50;;;2.90;;
44746;SDS011;30472;49.490;10.972;2023-08-06T06:31:16;4.07;;;2.50;;
44746;SDS011;30472;49.490;10.972;2023-08-06T06:33:42;3.20;;;2.87;;
44746;SDS011;30472;49.490;10.972;2023-08-06T06:36:07;4.60;;;2.87;;
44746;SDS011;30472;49.490;10.972;2023-08-06T06:38:33;2.93;;;2.70;;
44746;SDS011;30472;49.490;10.972;2023-08-06T06:40:59;3.67;;;2.73;;
44746;SDS011;30472;49.490;10.972;2023-08-06T06:43:25;4.90;;;2.63;;
44746;SDS011;30472;49.490;10.972;2023-08-06T06:46:00;3.00;;;2.80;;
44746;SDS011;30472;49.490;10.972;2023-08-06T06:48:30;3.30;;;3.00;;
44746;SDS011;30472;49.490;10.972;2023-08-06T06:50:57;5.73;;;3.17;;
44746;SDS011;30472;49.490;10.972;2023-08-06T06:53:23;3.20;;;2.90;;
44746;SDS011;30472;49.490;10.972;2023-08-06T06:55:53;4.57;;;2.90;;
44746;SDS011;30472;49.490;10.972;2023-08-06T06:58:26;4.23;;;3.17;;
44746;SDS011;30472;49.490;10.972;2023-08-06T07:00:51;4.07;;;3.33;;
44746;SDS011;30472;49.490;10.972;2023-08-06T07:03:17;3.77;;;3.20;;
44746;SDS011;30472;49.490;10.972;2023-08-06T07:05:43;5.50;;;3.30;;
44746;SDS011;30472;49.490;10.972;2023-08-06T07:08:09;3.80;;;3.10;;
44746;SDS011;30472;49.490;10.972;2023-08-06T07:10:35;4.57;;;2.87;;
44746;SDS011;30472;49.490;10.972;2023-08-06T07:13:00;3.00;;;2.63;;
44746;SDS011;30472;49.490;10.972;2023-08-06T07:15:26;3.67;;;3.13;;
44746;SDS011;30472;49.490;10.972;2023-08-06T07:17:51;5.40;;;3.10;;
44746;SDS011;30472;49.490;10.972;2023-08-06T07:20:17;5.57;;;3.00;;
44746;SDS011;30472;49.490;10.972;2023-08-06T07:22:43;5.50;;;3.37;;
44746;SDS011;30472;49.490;10.972;2023-08-06T07:25:10;3.80;;;2.97;;
44746;SDS011;30472;49.490;10.972;2023-08-06T07:27:36;4.00;;;3.07;;
44746;SDS011;30472;49.490;10.972;2023-08-06T07:30:01;3.77;;;2.60;;
44746;SDS011;30472;49.490;10.972;2023-08-06T07:32:27;3.27;;;2.77;;
44746;SDS011;30472;49.490;10.972;2023-08-06T07:34:53;3.97;;;2.73;;
44746;SDS011;30472;49.490;10.972;2023-08-06T07:37:25;2.67;;;2.47;;
44746;SDS011;30472;49.490;10.972;2023-08-06T07:39:53;3.80;;;2.50;;
44746;SDS011;30472;49.490;10.972;2023-08-06T07:42:19;2.83;;;2.10;;
44746;SDS011;30472;49.490;10.972;2023-08-06T07:44:49;2.47;;;1.80;;
44746;SDS011;30472;49.490;10.972;2023-08-06T07:47:17;2.60;;;2.40;;
44746;SDS011;30472;49.490;10.972;2023-08-06T07:49:43;3.67;;;1.90;;
44746;SDS011;30472;49.490;10.972;2023-08-06T07:52:09;2.30;;;2.10;;
44746;SDS011;30472;49.490;10.972;2023-08-06T07:54:34;2.75;;;1.92;;
44746;SDS011;30472;49.490;10.972;2023-08-06T07:57:00;6.10;;;2.10;;
44746;SDS011;30472;49.490;10.972;2023-08-06T07:59:25;2.70;;;1.88;;
44746;SDS011;30472;49.490;10.972;2023-08-06T08:01:51;1.63;;;1.52;;
44746;SDS011;30472;49.490;10.972;2023-08-06T08:04:16;2.22;;;1.70;;
44746;SDS011;30472;49.490;10.972;2023-08-06T08:06:42;2.00;;;1.67;;
44746;SDS011;30472;49.490;10.972;2023-08-06T08:09:07;1.90;;;1.30;;
44746;SDS011;30472;49.490;10.972;2023-08-06T08:11:33;1.25;;;1.05;;
44746;SDS011;30472;49.490;10.972;2023-08-06T08:13:58;1.23;;;1.10;;
44746;SDS011;30472;49.490;10.972;2023-08-06T08:16:24;2.38;;;1.20;;
44746;SDS011;30472;49.490;10.972;2023-08-06T08:18:49;1.60;;;1.20;;
44746;SDS011;30472;49.490;10.972;2023-08-06T08:21:15;2.50;;;1.15;;
44746;SDS011;30472;49.490;10.972;2023-08-06T08:23:40;2.40;;;1.05;;
44746;SDS011;30472;49.490;10.972;2023-08-06T08:26:07;0.70;;;0.70;;
44746;SDS011;30472;49.490;10.972;2023-08-06T08:28:32;0.60;;;0.60;;
44746;SDS011;30472;49.490;10.972;2023-08-06T08:30:58;0.60;;;0.50;;
44746;SDS011;30472;49.490;10.972;2023-08-06T08:33:23;1.20;;;0.47;;
44746;SDS011;30472;49.490;10.972;2023-08-06T08:35:49;2.73;;;0.40;;
44746;SDS011;30472;49.490;10.972;2023-08-06T08:38:15;0.87;;;0.47;;
44746;SDS011;30472;49.490;10.972;2023-08-06T08:40:42;1.45;;;0.30;;
44746;SDS011;30472;49.490;10.972;2023-08-06T08:43:13;0.32;;;0.30;;
44746;SDS011;30472;49.490;10.972;2023-08-06T08:45:40;0.50;;;0.30;;
44746;SDS011;30472;49.490;10.972;2023-08-06T08:48:08;1.35;;;0.40;;
44746;SDS011;30472;49.490;10.972;2023-08-06T08:50:38;0.30;;;0.30;;
44746;SDS011;30472;49.490;10.972;2023-08-06T08:53:04;0.30;;;0.30;;
44746;SDS011;30472;49.490;10.972;2023-08-06T08:55:30;0.40;;;0.40;;
44746;SDS011;30472;49.490;10.972;2023-08-06T08:57:57;0.43;;;0.32;;
44746;SDS011;30472;49.490;10.972;2023-08-06T09:00:22;0.52;;;0.50;;
44746;SDS011;30472;49.490;10.972;2023-08-06T09:02:49;0.95;;;0.40;;
44746;SDS011;30472;49.490;10.972;2023-08-06T09:05:15;0.73;;;0.47;;
44746;SDS011;30472;49.490;10.972;2023-08-06T09:07:43;0.80;;;0.50;;
44746;SDS011;30472;49.490;10.972;2023-08-06T09:10:13;3.03;;;0.50;;
44746;SDS011;30472;49.490;10.972;2023-08-06T09:12:42;0.45;;;0.32;;
44746;SDS011;30472;49.490;10.972;2023-08-06T09:15:09;0.50;;;0.20;;
44746;SDS011;30472;49.490;10.972;2023-08-06T09:17:36;0.95;;;0.30;;
44746;SDS011;30472;49.490;10.972;2023-08-06T09:20:14;0.40;;;0.40;;
44746;SDS011;30472;49.490;10.972;2023-08-06T09:22:41;0.15;;;0.15;;
44746;SDS011;30472;49.490;10.972;2023-08-06T09:25:07;0.52;;;0.30;;
44746;SDS011;30472;49.490;10.972;2023-08-06T09:27:36;0.30;;;0.20;;
44746;SDS011;30472;49.490;10.972;2023-08-06T09:30:03;0.55;;;0.30;;
44746;SDS011;30472;49.490;10.972;2023-08-06T09:32:44;0.25;;;0.20;;
44746;SDS011;30472;49.490;10.972;2023-08-06T09:35:14;0.40;;;0.25;;
44746;SDS011;30472;49.490;10.972;2023-08-06T09:37:41;1.05;;;0.20;;
44746;SDS011;30472;49.490;10.972;2023-08-06T09:40:28;0.63;;;0.20;;
44746;SDS011;30472;49.490;10.972;2023-08-06T09:42:56;1.02;;;0.43;;
44746;SDS011;30472;49.490;10.972;2023-08-06T09:45:22;0.47;;;0.30;;
44746;SDS011;30472;49.490;10.972;2023-08-06T09:47:56;3.20;;;0.52;;
44746;SDS011;30472;49.490;10.972;2023-08-06T09:50:22;0.43;;;0.28;;
44746;SDS011;30472;49.490;10.972;2023-08-06T09:52:50;0.40;;;0.40;;
44746;SDS011;30472;49.490;10.972;2023-08-06T09:55:16;0.90;;;0.32;;
44746;SDS011;30472;49.490;10.972;2023-08-06T09:57:43;0.68;;;0.30;;
44746;SDS011;30472;49.490;10.972;2023-08-06T10:00:10;0.20;;;0.20;;
44746;SDS011;30472;49.490;10.972;2023-08-06T10:02:40;0.20;;;0.20;;
44746;SDS011;30472;49.490;10.972;2023-08-06T10:05:06;0.35;;;0.30;;
44746;SDS011;30472;49.490;10.972;2023-08-06T10:07:35;0.45;;;0.30;;
44746;SDS011;30472;49.490;10.972;2023-08-06T10:10:01;1.48;;;0.35;;
44746;SDS011;30472;49.490;10.972;2023-08-06T10:12:32;0.30;;;0.30;;
44746;SDS011;30472;49.490;10.972;2023-08-06T10:15:03;0.38;;;0.30;;
44746;SDS011;30472;49.490;10.972;2023-08-06T10:17:33;0.80;;;0.40;;
44746;SDS011;30472;49.490;10.972;2023-08-06T10:20:00;0.40;;;0.40;;
44746;SDS011;30472;49.490;10.972;2023-08-06T10:22:25;0.10;;;0.10;;
44746;SDS011;30472;49.490;10.972;2023-08-06T10:24:59;0.30;;;0.20;;
44746;SDS011;30472;49.490;10.972;2023-08-06T10:27:33;0.20;;;0.20;;
44746;SDS011;30472;49.490;10.972;2023-08-06T10:32:49;0.85;;;0.17;;
44746;SDS011;30472;49.490;10.972;2023-08-06T10:35:27;0.25;;;0.25;;
44746;SDS011;30472;49.490;10.972;2023-08-06T10:37:53;0.88;;;0.30;;
44746;SDS011;30472;49.490;10.972;2023-08-06T10:40:22;0.50;;;0.50;;
44746;SDS011;30472;49.490;10.972;2023-08-06T10:42:49;0.30;;;0.30;;
44746;SDS011;30472;49.490;10.972;2023-08-06T10:45:15;0.30;;;0.20;;
44746;SDS011;30472;49.490;10.972;2023-08-06T10:47:42;0.30;;;0.30;;
44746;SDS011;30472;49.490;10.972;2023-08-06T10:50:11;0.30;;;0.30;;
44746;SDS011;30472;49.490;10.972;2023-08-06T10:52:39;0.52;;;0.32;;
44746;SDS011;30472;49.490;10.972;2023-08-06T10:55:05;0.38;;;0.30;;
44746;SDS011;30472;49.490;10.972;2023-08-06T10:57:31;0.30;;;0.22;;
44746;SDS011;30472;49.490;10.972;2023-08-06T10:59:56;0.05;;;0.05;;
44746;SDS011;30472;49.490;10.972;2023-08-06T11:02:22;1.67;;;0.30;;
44746;SDS011;30472;49.490;10.972;2023-08-06T11:04:48;0.68;;;0.20;;
44746;SDS011;30472;49.490;10.972;2023-08-06T11:07:13;0.15;;;0.15;;
44746;SDS011;30472;49.490;10.972;2023-08-06T11:09:39;0.25;;;0.22;;
44746;SDS011;30472;49.490;10.972;2023-08-06T11:12:11;0.20;;;0.20;;
44746;SDS011;30472;49.490;10.972;2023-08-06T11:14:37;0.63;;;0.30;;
44746;SDS011;30472;49.490;10.972;2023-08-06T11:17:04;0.43;;;0.30;;
44746;SDS011;30472;49.490;10.972;2023-08-06T11:19:30;0.10;;;0.10;;
44746;SDS011;30472;49.490;10.972;2023-08-06T11:21:56;2.35;;;0.30;;
44746;SDS011;30472;49.490;10.972;2023-08-06T11:24:23;0.25;;;0.10;;
44746;SDS011;30472;49.490;10.972;2023-08-06T11:26:49;0.70;;;0.25;;
44746;SDS011;30472;49.490;10.972;2023-08-06T11:29:15;0.10;;;0.10;;
44746;SDS011;30472;49.490;10.972;2023-08-06T11:31:42;0.30;;;0.30;;
44746;SDS011;30472;49.490;10.972;2023-08-06T11:34:07;0.20;;;0.20;;
44746;SDS011;30472;49.490;10.972;2023-08-06T11:36:34;0.17;;;0.13;;
44746;SDS011;30472;49.490;10.972;2023-08-06T11:39:05;0.75;;;0.30;;
44746;SDS011;30472;49.490;10.972;2023-08-06T11:41:31;0.30;;;0.30;;
44746;SDS011;30472;49.490;10.972;2023-08-06T11:43:57;0.30;;;0.30;;
44746;SDS011;30472;49.490;10.972;2023-08-06T11:46:23;0.30;;;0.30;;
44746;SDS011;30472;49.490;10.972;2023-08-06T11:48:50;0.20;;;0.20;;
44746;SDS011;30472;49.490;10.972;2023-08-06T11:51:17;0.17;;;0.17;;
44746;SDS011;30472;49.490;10.972;2023-08-06T11:53:46;0.20;;;0.20;;
44746;SDS011;30472;49.490;10.972;2023-08-06T11:56:14;0.10;;;0.10;;
44746;SDS011;30472;49.490;10.972;2023-08-06T11:58:43;0.10;;;0.10;;
44746;SDS011;30472;49.490;10.972;2023-08-06T12:01:08;2.05;;;1.33;;
44746;SDS011;30472;49.490;10.972;2023-08-06T12:03:40;0.55;;;0.55;;
44746;SDS011;30472;49.490;10.972;2023-08-06T12:06:06;0.00;;;0.00;;
44746;SDS011;30472;49.490;10.972;2023-08-06T12:08:34;0.20;;;0.20;;
44746;SDS011;30472;49.490;10.972;2023-08-06T12:11:00;0.10;;;0.10;;
44746;SDS011;30472;49.490;10.972;2023-08-06T12:13:26;0.10;;;0.10;;
44746;SDS011;30472;49.490;10.972;2023-08-06T12:15:53;0.20;;;0.13;;
44746;SDS011;30472;49.490;10.972;2023-08-06T12:18:19;0.20;;;0.20;;
44746;SDS011;30472;49.490;10.972;2023-08-06T12:20:45;0.38;;;0.20;;
44746;SDS011;30472;49.490;10.972;2023-08-06T12:23:10;0.30;;;0.30;;
44746;SDS011;30472;49.490;10.972;2023-08-06T12:25:40;0.63;;;0.30;;
44746;SDS011;30472;49.490;10.972;2023-08-06T12:28:06;1.35;;;0.20;;
44746;SDS011;30472;49.490;10.972;2023-08-06T12:30:32;0.28;;;0.28;;
44746;SDS011;30472;49.490;10.972;2023-08-06T12:32:58;0.32;;;0.32;;
44746;SDS011;30472;49.490;10.972;2023-08-06T12:35:23;0.47;;;0.40;;
44746;SDS011;30472;49.490;10.972;2023-08-06T12:37:50;0.20;;;0.20;;
44746;SDS011;30472;49.490;10.972;2023-08-06T12:40:19;0.20;;;0.20;;
44746;SDS011;30472;49.490;10.972;2023-08-06T12:42:45;0.10;;;0.10;;
44746;SDS011;30472;49.490;10.972;2023-08-06T12:45:11;0.20;;;0.20;;
44746;SDS011;30472;49.490;10.972;2023-08-06T12:47:36;1.80;;;0.13;;
44746;SDS011;30472;49.490;10.972;2023-08-06T12:50:02;0.20;;;0.20;;
44746;SDS011;30472;49.490;10.972;2023-08-06T12:52:28;0.10;;;0.10;;
44746;SDS011;30472;49.490;10.972;2023-08-06T12:54:54;0.28;;;0.25;;
44746;SDS011;30472;49.490;10.972;2023-08-06T12:57:20;0.82;;;0.20;;
44746;SDS011;30472;49.490;10.972;2023-08-06T12:59:45;0.15;;;0.15;;
44746;SDS011;30472;49.490;10.972;2023-08-06T13:02:11;0.10;;;0.10;;
44746;SDS011;30472;49.490;10.972;2023-08-06T13:04:36;0.15;;;0.15;;
44746;SDS011;30472;49.490;10.972;2023-08-06T13:07:02;1.38;;;0.10;;
44746;SDS011;30472;49.490;10.972;2023-08-06T13:09:27;1.35;;;0.20;;
44746;SDS011;30472;49.490;10.972;2023-08-06T13:11:54;0.20;;;0.20;;
44746;SDS011;30472;49.490;10.972;2023-08-06T13:14:20;0.10;;;0.10;;
44746;SDS011;30472;49.490;10.972;2023-08-06T13:16:46;0.20;;;0.20;;
44746;SDS011;30472;49.490;10.972;2023-08-06T13:19:11;0.82;;;0.30;;
44746;SDS011;30472;49.490;10.972;2023-08-06T13:24:05;0.20;;;0.20;;
44746;SDS011;30472;49.490;10.972;2023-08-06T13:26:31;0.35;;;0.25;;
44746;SDS011;30472;49.490;10.972;2023-08-06T13:28:57;1.60;;;0.15;;
44746;SDS011;30472;49.490;10.972;2023-08-06T13:31:24;0.00;;;0.00;;
44746;SDS011;30472;49.490;10.972;2023-08-06T13:33:52;0.13;;;0.10;;
44746;SDS011;30472;49.490;10.972;2023-08-06T13:36:22;0.10;;;0.10;;
44746;SDS011;30472;49.490;10.972;2023-08-06T13:38:48;1.00;;;0.20;;
44746;SDS011;30472;49.490;10.972;2023-08-06T13:41:14;0.90;;;0.20;;
44746;SDS011;30472;49.490;10.972;2023-08-06T13:43:40;0.30;;;0.03;;
44746;SDS011;30472;49.490;10.972;2023-08-06T13:46:05;0.20;;;0.10;;
44746;SDS011;30472;49.490;10.972;2023-08-06T13:48:31;0.53;;;0.20;;
44746;SDS011;30472;49.490;10.972;2023-08-06T13:50:57;0.20;;;0.20;;
44746;SDS011;30472;49.490;10.972;2023-08-06T13:53:23;0.10;;;0.10;;
44746;SDS011;30472;49.490;10.972;2023-08-06T13:55:50;0.30;;;0.30;;
44746;SDS011;30472;49.490;10.972;2023-08-06T13:58:15;0.20;;;0.10;;
44746;SDS011;30472;49.490;10.972;2023-08-06T14:00:41;1.63;;;0.20;;
44746;SDS011;30472;49.490;10.972;2023-08-06T14:03:07;0.30;;;0.10;;
44746;SDS011;30472;49.490;10.972;2023-08-06T14:05:33;0.20;;;0.20;;
44746;SDS011;30472;49.490;10.972;2023-08-06T14:07:59;0.20;;;0.20;;
44746;SDS011;30472;49.490;10.972;2023-08-06T14:10:25;0.30;;;0.30;;
44746;SDS011;30472;49.490;10.972;2023-08-06T14:12:50;0.70;;;0.30;;
44746;SDS011;30472;49.490;10.972;2023-08-06T14:15:16;0.30;;;0.23;;
44746;SDS011;30472;49.490;10.972;2023-08-06T14:17:41;0.20;;;0.20;;
44746;SDS011;30472;49.490;10.972;2023-08-06T14:20:07;0.20;;;0.20;;
44746;SDS011;30472;49.490;10.972;2023-08-06T14:22:36;0.20;;;0.20;;
44746;SDS011;30472;49.490;10.972;2023-08-06T14:25:02;0.37;;;0.37;;
44746;SDS011;30472;49.490;10.972;2023-08-06T14:27:28;0.20;;;0.20;;
44746;SDS011;30472;49.490;10.972;2023-08-06T14:29:54;1.07;;;0.50;;
44746;SDS011;30472;49.490;10.972;2023-08-06T14:32:19;0.40;;;0.40;;
44746;SDS011;30472;49.490;10.972;2023-08-06T14:34:46;0.37;;;0.37;;
44746;SDS011;30472;49.490;10.972;2023-08-06T14:37:11;0.30;;;0.30;;
44746;SDS011;30472;49.490;10.972;2023-08-06T14:39:37;0.40;;;0.40;;
44746;SDS011;30472;49.490;10.972;2023-08-06T14:42:03;0.40;;;0.40;;